Time;durP1;ratioP1;P1;durP2;ratioP2;P2;SDS_P1;SDS_P2;PMS_P1;PMS_P2;Temp;Humidity;BMP_temperature;BMP_pressure;BME280_temperature;BME280_humidity;BME280_pressure;Samples;Min_cycle;Max_cycle;Signal;HPM_P1;HPM_P2
2022/06/11 00:01:20;;;;;;;6.22;2.15;;;15.60;95.60;;;;;;4955153;28;20542;-75
2022/06/11 00:03:52;;;;;;;2.92;2.28;;;15.50;95.80;;;;;;4955313;28;20074;-75
2022/06/11 00:06:19;;;;;;;4.05;1.90;;;15.50;96.00;;;;;;4956570;28;20020;-75
2022/06/11 00:08:46;;;;;;;2.83;2.15;;;15.40;96.20;;;;;;4960765;28;20022;-75
2022/06/11 00:11:15;;;;;;;2.55;1.85;;;15.40;96.40;;;;;;4956268;28;20027;-75
2022/06/11 00:13:44;;;;;;;5.13;2.25;;;15.30;96.60;;;;;;4947115;28;20413;-75
2022/06/11 00:16:11;;;;;;;4.43;1.98;;;15.30;96.80;;;;;;4957456;28;20488;-75
2022/06/11 00:18:40;;;;;;;3.08;1.85;;;15.30;97.10;;;;;;4948214;28;20035;-76
2022/06/11 00:21:06;;;;;;;3.80;1.58;;;15.20;97.10;;;;;;4955033;28;20022;-76
2022/06/11 00:23:32;;;;;;;3.95;2.00;;;15.20;97.20;;;;;;4953180;28;20481;-76
2022/06/11 00:26:02;;;;;;;4.72;2.17;;;15.20;97.30;;;;;;4959759;28;20054;-76
2022/06/11 00:28:28;;;;;;;2.80;1.52;;;15.20;97.40;;;;;;4961385;28;20035;-76
2022/06/11 00:30:57;;;;;;;3.30;2.22;;;15.20;97.60;;;;;;4958731;28;20396;-76
2022/06/11 00:33:28;;;;;;;5.25;1.90;;;15.10;97.80;;;;;;4957225;28;20098;-75
2022/06/11 00:35:55;;;;;;;4.38;2.17;;;15.10;97.90;;;;;;4957070;28;20436;-75
2022/06/11 00:38:24;;;;;;;2.53;1.70;;;15.00;98.10;;;;;;4950181;28;20031;-75
2022/06/11 00:40:52;;;;;;;3.80;2.33;;;14.90;98.60;;;;;;4954548;28;20625;-75
2022/06/11 00:43:30;;;;;;;5.85;2.42;;;14.90;98.60;;;;;;4952150;28;20023;-75
2022/06/11 00:46:27;;;;;;;4.72;1.98;;;14.90;98.90;;;;;;4949229;28;20031;-75
2022/06/11 00:48:52;;;;;;;3.75;2.17;;;14.80;99.00;;;;;;4961946;28;20043;-76
2022/06/11 00:51:22;;;;;;;2.67;2.08;;;14.80;99.30;;;;;;4954070;28;20188;-75
2022/06/11 00:53:52;;;;;;;3.72;2.65;;;14.80;99.30;;;;;;4953729;28;20031;-75
2022/06/11 00:56:45;;;;;;;3.08;2.05;;;14.80;99.50;;;;;;4951019;28;20035;-75
2022/06/11 00:59:16;;;;;;;4.90;1.83;;;14.70;99.90;;;;;;4955788;28;20365;-75
2022/06/11 01:01:42;;;;;;;4.18;2.08;;;14.70;99.70;;;;;;4958833;28;20251;-75
2022/06/11 01:04:39;;;;;;;3.22;2.00;;;14.80;99.90;;;;;;4954033;28;20023;-75
2022/06/11 01:07:22;;;;;;;3.63;2.13;;;14.70;99.90;;;;;;4962826;28;20077;-75
2022/06/11 01:09:56;;;;;;;1.63;1.42;;;14.80;99.90;;;;;;4964729;28;20038;-76
2022/06/11 01:12:43;;;;;;;4.57;1.70;;;14.70;99.90;;;;;;4952754;28;20035;-76
2022/06/11 01:15:28;;;;;;;2.47;1.70;;;14.70;99.90;;;;;;4967110;28;20035;-76
2022/06/11 01:18:40;;;;;;;6.30;1.85;;;14.70;99.90;;;;;;4958775;28;20038;-75
2022/06/11 01:22:17;;;;;;;3.55;1.95;;;14.60;99.90;;;;;;4960488;28;20449;-75
2022/06/11 01:24:58;;;;;;;2.80;1.88;;;14.60;99.90;;;;;;4938145;28;20035;-75
2022/06/11 01:28:02;;;;;;;3.30;2.20;;;14.50;99.90;;;;;;4946840;29;20063;-75
2022/06/11 01:31:01;;;;;;;3.38;2.13;;;14.50;99.90;;;;;;4913910;29;20530;-75
2022/06/11 01:33:57;;;;;;;4.00;2.10;;;14.40;99.90;;;;;;4899926;29;20110;-76
2022/06/11 01:36:34;;;;;;;3.60;1.90;;;14.40;99.90;;;;;;4952310;28;20065;-76
2022/06/11 01:39:20;;;;;;;3.10;2.40;;;14.40;99.90;;;;;;4961116;28;20388;-76
2022/06/11 01:42:12;;;;;;;5.50;1.73;;;14.40;99.90;;;;;;4951991;28;20102;-75
2022/06/11 01:44:42;;;;;;;3.72;2.05;;;14.40;99.90;;;;;;4951143;28;20027;-75
2022/06/11 01:47:10;;;;;;;4.03;2.25;;;14.30;99.90;;;;;;4949462;28;20496;-76
2022/06/11 01:49:44;;;;;;;2.10;1.90;;;14.30;99.90;;;;;;4950969;28;20031;-75
2022/06/11 01:52:21;;;;;;;;;;;14.20;99.90;;;;;;4953534;28;20023;-75
2022/06/11 01:54:47;;;;;;;4.15;2.40;;;14.20;99.90;;;;;;4953087;28;20439;-75
2022/06/11 01:57:43;;;;;;;3.20;2.10;;;14.20;99.90;;;;;;4961345;28;20034;-75
2022/06/11 02:00:09;;;;;;;3.38;2.40;;;14.10;99.90;;;;;;4950795;28;20437;-76
2022/06/11 02:02:35;;;;;;;2.83;1.92;;;14.10;99.90;;;;;;4953348;28;20094;-76
2022/06/11 02:05:34;;;;;;;4.35;2.30;;;14.10;99.90;;;;;;4966565;28;20026;-76
2022/06/11 02:08:06;;;;;;;3.80;2.20;;;14.10;99.90;;;;;;4956569;28;20027;-75
2022/06/11 02:11:13;;;;;;;6.35;2.58;;;14.00;99.90;;;;;;4934419;29;20092;-74
2022/06/11 02:14:12;;;;;;;4.28;2.67;;;14.10;99.90;;;;;;4953672;28;20023;-77
2022/06/11 02:17:01;;;;;;;6.47;1.92;;;14.10;99.90;;;;;;4953505;28;20027;-75
2022/06/11 02:19:33;;;;;;;3.85;2.20;;;14.10;99.90;;;;;;4952338;29;20031;-76
2022/06/11 02:22:31;;;;;;;3.15;2.00;;;14.10;99.90;;;;;;4966276;28;20023;-76
2022/06/11 02:25:37;;;;;;;3.53;2.10;;;14.10;99.90;;;;;;4964792;28;20487;-76
2022/06/11 02:28:09;;;;;;;3.00;2.25;;;14.10;99.90;;;;;;4972875;28;20119;-75
2022/06/11 02:30:37;;;;;;;2.60;1.80;;;14.10;99.90;;;;;;4971477;28;20517;-76
2022/06/11 02:33:09;;;;;;;2.15;1.92;;;14.10;99.90;;;;;;4953765;28;20015;-76
2022/06/11 02:35:53;;;;;;;2.83;2.15;;;14.10;99.90;;;;;;4953704;28;20118;-76
2022/06/11 02:38:23;;;;;;;3.38;2.28;;;14.00;99.90;;;;;;4964753;28;20170;-76
2022/06/11 02:41:05;;;;;;;2.60;2.28;;;14.00;99.90;;;;;;4951452;29;20035;-76
2022/06/11 02:43:35;;;;;;;4.20;2.20;;;14.00;99.90;;;;;;4968232;28;20023;-76
2022/06/11 02:46:40;;;;;;;3.88;1.88;;;14.00;99.90;;;;;;4953779;28;20031;-76
2022/06/11 02:48:52;;;;;;;3.60;2.45;;;13.90;99.90;;;;;;4963483;28;20035;-76
2022/06/11 02:51:23;;;;;;;3.70;2.22;;;13.90;99.90;;;;;;4957240;28;20105;-76
2022/06/11 02:53:55;;;;;;;4.28;1.90;;;13.90;99.90;;;;;;4957138;28;20034;-76
2022/06/11 02:56:20;;;;;;;4.43;2.20;;;13.90;99.90;;;;;;4953244;28;20407;-76
2022/06/11 02:58:49;;;;;;;2.55;1.80;;;13.90;99.90;;;;;;4976375;28;20034;-76
2022/06/11 03:01:16;;;;;;;3.30;2.20;;;13.90;99.90;;;;;;4976536;28;20034;-76
2022/06/11 03:03:42;;;;;;;5.72;1.90;;;13.80;99.90;;;;;;4973743;28;20027;-76
2022/06/11 03:06:11;;;;;;;6.30;2.42;;;13.80;99.90;;;;;;4969780;28;20018;-76
2022/06/11 03:08:42;;;;;;;3.58;2.78;;;13.70;99.90;;;;;;4958432;28;20051;-76
2022/06/11 03:11:12;;;;;;;4.68;2.70;;;13.60;99.90;;;;;;4956876;28;20038;-76
2022/06/11 03:13:40;;;;;;;4.22;2.83;;;13.60;99.90;;;;;;4974445;28;20023;-76
2022/06/11 03:16:06;;;;;;;6.80;2.78;;;13.60;99.90;;;;;;4975837;28;20158;-76
2022/06/11 03:18:35;;;;;;;3.45;2.13;;;13.70;99.90;;;;;;4967649;28;20032;-76
2022/06/11 03:21:01;;;;;;;4.68;2.38;;;13.60;99.90;;;;;;4956820;28;20030;-76
2022/06/11 03:23:30;;;;;;;5.25;2.35;;;13.70;99.90;;;;;;4955350;29;20028;-76
2022/06/11 03:26:02;;;;;;;3.38;1.90;;;13.70;99.90;;;;;;4960927;28;20476;-76
2022/06/11 03:28:29;;;;;;;2.88;2.08;;;13.70;99.90;;;;;;4955696;28;20038;-76
2022/06/11 03:31:06;;;;;;;4.72;2.40;;;13.70;99.90;;;;;;4973283;28;20039;-76
2022/06/11 03:33:35;;;;;;;3.20;2.17;;;13.70;99.90;;;;;;4958238;28;20038;-76
2022/06/11 03:36:07;;;;;;;5.70;2.50;;;13.70;99.90;;;;;;4961440;28;20054;-76
2022/06/11 03:38:33;;;;;;;4.40;2.50;;;13.60;99.90;;;;;;4959018;28;20507;-75
2022/06/11 03:40:59;;;;;;;3.00;2.20;;;13.60;99.90;;;;;;4968886;28;20546;-75
2022/06/11 03:43:37;;;;;;;6.18;2.38;;;13.50;99.90;;;;;;4975554;28;20391;-76
2022/06/11 03:46:09;;;;;;;5.20;2.47;;;13.60;99.90;;;;;;4975811;28;20027;-76
2022/06/11 03:48:37;;;;;;;4.50;2.05;;;13.50;99.90;;;;;;4975829;28;20035;-76
2022/06/11 03:51:05;;;;;;;5.65;2.38;;;13.50;99.90;;;;;;4962092;28;20031;-76
2022/06/11 03:53:31;;;;;;;3.20;2.28;;;13.60;99.90;;;;;;4955511;28;20483;-76
2022/06/11 03:55:57;;;;;;;5.13;2.42;;;13.60;99.90;;;;;;4956908;28;20035;-77
2022/06/11 03:58:26;;;;;;;4.50;2.40;;;13.60;99.90;;;;;;4955655;28;20447;-76
2022/06/11 04:03:38;;;;;;;4.75;2.40;;;13.70;99.90;;;;;;4958364;28;20074;-75
2022/06/11 04:06:04;;;;;;;3.25;2.40;;;13.60;99.90;;;;;;4975315;28;20038;-76
2022/06/11 04:08:37;;;;;;;3.30;2.25;;;13.70;99.90;;;;;;4957883;28;20110;-76
2022/06/11 04:11:06;;;;;;;4.97;2.38;;;13.70;99.90;;;;;;4969054;28;20030;-75
2022/06/11 04:13:38;;;;;;;9.32;2.50;;;13.70;99.90;;;;;;4969857;28;20028;-74
2022/06/11 04:16:15;;;;;;;3.53;2.30;;;13.80;99.90;;;;;;4952326;28;20165;-74
2022/06/11 04:18:47;;;;;;;2.95;2.17;;;13.80;99.90;;;;;;4962829;28;20476;-74
2022/06/11 04:21:13;;;;;;;4.85;2.50;;;13.90;99.90;;;;;;4954613;28;20022;-75
2022/06/11 04:23:46;;;;;;;3.63;2.47;;;13.90;99.90;;;;;;4957446;28;20082;-75
2022/06/11 04:26:15;;;;;;;4.15;2.28;;;14.10;99.90;;;;;;4951868;28;20401;-75
2022/06/11 04:28:41;;;;;;;3.15;2.28;;;14.30;99.90;;;;;;4970015;28;20038;-75
2022/06/11 04:31:09;;;;;;;4.40;2.50;;;14.50;99.90;;;;;;4953397;28;20023;-75
2022/06/11 04:33:38;;;;;;;3.95;2.22;;;15.10;99.90;;;;;;4962483;28;20038;-76
2022/06/11 04:36:07;;;;;;;3.95;2.65;;;15.50;99.90;;;;;;4960532;28;20476;-75
2022/06/11 04:38:33;;;;;;;2.85;2.50;;;15.60;99.90;;;;;;4960784;28;20027;-76
2022/06/11 04:40:59;;;;;;;3.75;2.33;;;15.70;99.90;;;;;;4969916;28;20055;-76
2022/06/11 04:43:25;;;;;;;3.00;1.80;;;15.70;99.90;;;;;;4950864;28;20019;-75
2022/06/11 04:45:50;;;;;;;2.30;1.88;;;15.70;99.90;;;;;;4959563;28;20034;-75
2022/06/11 04:48:19;;;;;;;3.13;2.20;;;15.70;99.90;;;;;;4949703;28;20110;-75
2022/06/11 04:50:45;;;;;;;3.55;2.33;;;15.70;99.90;;;;;;4951708;28;20026;-75
2022/06/11 04:53:11;;;;;;;2.50;1.88;;;15.80;99.90;;;;;;4953694;28;20523;-76
2022/06/11 04:55:36;;;;;;;3.03;2.13;;;15.90;99.90;;;;;;4950750;28;20031;-75
2022/06/11 04:58:03;;;;;;;2.85;1.90;;;16.00;99.90;;;;;;4973031;28;20034;-75
2022/06/11 05:00:30;;;;;;;5.60;2.60;;;16.10;99.90;;;;;;4953858;28;20023;-74
2022/06/11 05:03:00;;;;;;;2.55;2.10;;;16.10;99.90;;;;;;4953988;28;20030;-76
2022/06/11 05:05:26;;;;;;;3.08;1.92;;;16.30;99.90;;;;;;4950581;28;20030;-75
2022/06/11 05:07:52;;;;;;;3.47;2.13;;;16.30;99.90;;;;;;4954138;28;20019;-75
2022/06/11 05:10:21;;;;;;;4.63;2.38;;;16.50;99.90;;;;;;4952707;28;20565;-75
2022/06/11 05:12:47;;;;;;;3.17;1.80;;;16.60;99.90;;;;;;4961603;28;20453;-76
2022/06/11 05:15:13;;;;;;;5.60;2.03;;;16.70;99.90;;;;;;4955657;28;20023;-75
2022/06/11 05:17:39;;;;;;;5.53;4.53;;;16.90;99.90;;;;;;4952049;28;20035;-76
2022/06/11 05:20:07;;;;;;;13.85;5.60;;;17.00;99.90;;;;;;4958271;28;20073;-76
2022/06/11 05:22:32;;;;;;;8.63;6.00;;;17.10;99.90;;;;;;4948321;28;20119;-76
2022/06/11 05:24:58;;;;;;;7.53;4.85;;;17.10;99.90;;;;;;4950781;28;20484;-75
2022/06/11 05:27:26;;;;;;;5.93;3.55;;;17.10;99.90;;;;;;4953884;28;20042;-74
2022/06/11 05:30:03;;;;;;;5.63;2.88;;;17.20;99.90;;;;;;4951828;28;20031;-75
2022/06/11 05:32:32;;;;;;;6.30;3.00;;;17.20;99.90;;;;;;4955113;28;20059;-75
2022/06/11 05:34:59;;;;;;;4.13;2.53;;;17.40;99.90;;;;;;4957100;28;20491;-76
2022/06/11 05:37:26;;;;;;;6.35;2.72;;;17.40;99.90;;;;;;4955005;28;20023;-76
2022/06/11 05:39:52;;;;;;;5.53;2.75;;;17.50;99.90;;;;;;4953085;28;20042;-75
2022/06/11 05:42:21;;;;;;;3.80;2.35;;;17.60;99.90;;;;;;4960492;28;20078;-75
2022/06/11 05:44:47;;;;;;;5.20;2.88;;;17.70;99.90;;;;;;4962082;28;20023;-76
2022/06/11 05:47:16;;;;;;;3.97;2.53;;;17.70;99.90;;;;;;4949728;28;20110;-75
2022/06/11 05:49:46;;;;;;;4.22;2.08;;;17.80;99.90;;;;;;4959140;28;20053;-75
2022/06/11 05:52:20;;;;;;;3.92;2.30;;;17.90;99.80;;;;;;4955339;28;20028;-76
2022/06/11 05:54:47;;;;;;;4.35;2.75;;;17.90;99.60;;;;;;4953623;28;20054;-74
2022/06/11 05:57:16;;;;;;;4.13;2.67;;;18.00;99.50;;;;;;4951929;28;20042;-75
2022/06/11 05:59:46;;;;;;;4.53;2.35;;;18.10;99.40;;;;;;4956098;28;20054;-75
2022/06/11 06:02:15;;;;;;;3.90;2.40;;;18.20;99.30;;;;;;4953894;28;20015;-76
2022/06/11 06:04:40;;;;;;;5.25;2.17;;;18.20;99.20;;;;;;4953406;28;20039;-75
2022/06/11 06:07:07;;;;;;;4.15;2.38;;;18.30;99.30;;;;;;4956234;28;20027;-75
2022/06/11 06:09:34;;;;;;;6.93;2.55;;;18.40;99.10;;;;;;4954512;28;20027;-77
2022/06/11 06:12:00;;;;;;;3.53;2.28;;;18.50;99.20;;;;;;4949411;28;20107;-76
2022/06/11 06:14:25;;;;;;;6.72;2.50;;;18.50;98.70;;;;;;4944254;28;20103;-77
2022/06/11 06:16:51;;;;;;;5.65;2.85;;;18.60;98.60;;;;;;4944893;28;20884;-76
2022/06/11 06:19:17;;;;;;;3.80;2.63;;;18.60;98.50;;;;;;4950035;28;20046;-76
2022/06/11 06:21:43;;;;;;;7.72;2.63;;;18.70;98.50;;;;;;4899213;28;20524;-77
2022/06/11 06:24:10;;;;;;;4.32;2.45;;;18.80;98.30;;;;;;4953729;28;20023;-74
2022/06/11 06:26:36;;;;;;;6.40;2.72;;;18.90;98.20;;;;;;4942105;28;20054;-75
2022/06/11 06:29:03;;;;;;;4.10;2.38;;;19.00;98.00;;;;;;4950115;28;20042;-76
2022/06/11 06:31:29;;;;;;;4.82;2.47;;;19.00;97.70;;;;;;4951468;28;20397;-75
2022/06/11 06:33:58;;;;;;;4.80;2.67;;;19.00;97.60;;;;;;4952998;28;20027;-76
2022/06/11 06:36:25;;;;;;;4.47;2.75;;;19.00;97.50;;;;;;4952744;28;20564;-78
2022/06/11 06:38:52;;;;;;;5.22;2.33;;;18.90;97.90;;;;;;4950013;28;20030;-76
2022/06/11 06:41:19;;;;;;;5.10;2.63;;;19.00;98.00;;;;;;4952468;28;20425;-75
2022/06/11 06:43:45;;;;;;;5.20;2.88;;;19.10;97.80;;;;;;4966714;28;20376;-76
2022/06/11 06:46:11;;;;;;;5.80;2.55;;;19.10;97.70;;;;;;4953497;28;20027;-75
2022/06/11 06:48:37;;;;;;;4.05;2.40;;;19.20;97.60;;;;;;4959413;28;20386;-75
2022/06/11 06:51:04;;;;;;;4.97;2.50;;;19.20;97.60;;;;;;4950082;28;20038;-75
2022/06/11 06:53:30;;;;;;;3.63;2.30;;;19.00;97.70;;;;;;4947264;28;20031;-75
2022/06/11 06:55:56;;;;;;;5.20;2.03;;;19.10;97.80;;;;;;4950190;28;20031;-75
2022/06/11 06:58:22;;;;;;;3.72;2.63;;;19.20;97.70;;;;;;4943121;28;20027;-74
2022/06/11 07:00:49;;;;;;;5.25;2.72;;;19.20;97.60;;;;;;4949836;28;20552;-75
2022/06/11 07:03:15;;;;;;;6.80;2.90;;;19.30;97.60;;;;;;4961962;28;20045;-74
2022/06/11 07:05:42;;;;;;;8.40;2.15;;;19.50;97.50;;;;;;4953492;28;20027;-75
2022/06/11 07:08:08;;;;;;;3.58;1.90;;;19.50;97.50;;;;;;4951561;28;20066;-75
2022/06/11 07:10:34;;;;;;;3.17;2.17;;;19.60;97.50;;;;;;4953492;28;20023;-75
2022/06/11 07:13:01;;;;;;;4.55;2.13;;;19.60;97.40;;;;;;4958233;28;20589;-75
2022/06/11 07:15:28;;;;;;;4.05;2.60;;;19.70;97.40;;;;;;4952715;28;20046;-75
2022/06/11 07:18:07;;;;;;;3.72;2.75;;;19.70;97.20;;;;;;4958032;28;20078;-75
2022/06/11 07:20:35;;;;;;;7.47;2.10;;;19.80;97.20;;;;;;4960994;28;20051;-74
2022/06/11 07:23:09;;;;;;;4.38;2.75;;;19.80;97.10;;;;;;4950769;28;20537;-75
2022/06/11 07:25:41;;;;;;;6.53;2.63;;;19.90;97.00;;;;;;4958682;28;20504;-75
2022/06/11 07:28:15;;;;;;;3.80;2.92;;;20.00;97.10;;;;;;4962429;28;20051;-75
2022/06/11 07:30:42;;;;;;;5.05;2.80;;;20.00;97.00;;;;;;4951713;29;20506;-75
2022/06/11 07:33:12;;;;;;;5.15;2.80;;;20.00;96.90;;;;;;4951554;28;20030;-75
2022/06/11 07:35:38;;;;;;;7.25;3.05;;;20.00;96.90;;;;;;4963330;28;20031;-75
2022/06/11 07:38:06;;;;;;;4.20;2.50;;;20.00;96.70;;;;;;4952858;28;20031;-75
2022/06/11 07:40:31;;;;;;;5.80;3.17;;;20.10;96.70;;;;;;4955224;29;20024;-76
2022/06/11 07:42:57;;;;;;;3.63;2.17;;;20.10;96.50;;;;;;4955374;29;20499;-76
2022/06/11 07:45:23;;;;;;;4.20;2.60;;;20.10;96.40;;;;;;4950218;28;20023;-76
2022/06/11 07:47:54;;;;;;;5.53;2.35;;;20.20;96.40;;;;;;4953296;28;20059;-74
2022/06/11 07:50:29;;;;;;;3.40;2.35;;;20.30;96.30;;;;;;4965992;28;20090;-75
2022/06/11 07:52:57;;;;;;;3.40;2.30;;;20.30;95.90;;;;;;4944364;28;20019;-75
2022/06/11 07:55:23;;;;;;;3.42;2.08;;;20.40;95.90;;;;;;4958063;28;20023;-76
2022/06/11 07:57:49;;;;;;;3.50;1.98;;;20.50;95.70;;;;;;4959197;28;20046;-76
2022/06/11 08:00:20;;;;;;;4.35;1.77;;;20.60;95.70;;;;;;4947383;28;20070;-76
2022/06/11 08:02:46;;;;;;;3.20;1.90;;;20.80;95.60;;;;;;4960292;28;20023;-75
2022/06/11 08:05:11;;;;;;;2.38;1.73;;;20.80;95.50;;;;;;4966393;28;20031;-75
2022/06/11 08:07:37;;;;;;;2.85;1.90;;;20.80;94.30;;;;;;4954136;28;20054;-74
2022/06/11 08:10:04;;;;;;;3.53;1.83;;;20.90;93.80;;;;;;4959612;28;20062;-76
2022/06/11 08:12:30;;;;;;;3.42;1.77;;;20.90;93.00;;;;;;4955747;28;20030;-75
2022/06/11 08:14:58;;;;;;;4.07;1.50;;;20.90;92.90;;;;;;4953782;28;20023;-76
2022/06/11 08:17:25;;;;;;;2.92;1.83;;;21.00;92.80;;;;;;4944318;28;20024;-75
2022/06/11 08:19:51;;;;;;;4.93;1.92;;;21.10;93.10;;;;;;4968504;28;20381;-75
2022/06/11 08:22:17;;;;;;;2.83;1.60;;;21.20;92.10;;;;;;4963736;28;20495;-75
2022/06/11 08:24:42;;;;;;;3.33;1.70;;;21.30;91.60;;;;;;4959926;28;20027;-76
2022/06/11 08:27:08;;;;;;;4.95;1.77;;;21.40;91.50;;;;;;4955032;28;20106;-75
2022/06/11 08:29:34;;;;;;;4.60;1.40;;;21.40;91.10;;;;;;4951365;28;20376;-75
2022/06/11 08:31:59;;;;;;;2.75;1.58;;;21.60;90.80;;;;;;4963447;28;20025;-74
2022/06/11 08:34:25;;;;;;;2.42;1.60;;;21.70;89.80;;;;;;4958437;28;20524;-75
2022/06/11 08:36:51;;;;;;;2.85;1.92;;;21.70;89.60;;;;;;4957075;28;20093;-76
2022/06/11 08:39:16;;;;;;;4.03;1.60;;;21.80;89.90;;;;;;4953499;28;20042;-76
2022/06/11 08:41:42;;;;;;;3.10;1.52;;;21.80;90.00;;;;;;4955634;28;20037;-75
2022/06/11 08:44:14;;;;;;;2.95;1.80;;;21.90;89.60;;;;;;4963067;28;20424;-75
2022/06/11 08:46:43;;;;;;;5.13;1.48;;;22.00;88.60;;;;;;4954319;28;20031;-75
2022/06/11 08:49:13;;;;;;;1.98;1.65;;;22.00;87.60;;;;;;4952809;28;20800;-74
2022/06/11 08:52:03;;;;;;;2.22;1.35;;;22.10;83.10;;;;;;4948941;28;20106;-75
2022/06/11 08:54:41;;;;;;;3.58;1.60;;;22.10;84.30;;;;;;4955827;28;20027;-75
2022/06/11 08:57:13;;;;;;;2.13;1.50;;;22.20;84.60;;;;;;4953783;28;20055;-74
2022/06/11 08:59:39;;;;;;;4.03;1.40;;;22.20;84.40;;;;;;4960727;28;20037;-75
2022/06/11 09:02:17;;;;;;;3.90;1.27;;;22.30;83.90;;;;;;4953358;28;20026;-75
2022/06/11 09:05:01;;;;;;;3.58;1.40;;;22.40;80.60;;;;;;4955089;28;20039;-74
2022/06/11 09:07:44;;;;;;;2.88;1.40;;;22.40;81.00;;;;;;4952071;28;20250;-74
2022/06/11 09:10:34;;;;;;;1.83;1.10;;;22.40;81.30;;;;;;4951056;28;20028;-74
2022/06/11 09:13:13;;;;;;;3.30;1.25;;;22.60;81.80;;;;;;4950037;28;20639;-74
2022/06/11 09:15:50;;;;;;;2.35;1.50;;;22.70;80.30;;;;;;4969176;28;20031;-75
2022/06/11 09:18:34;;;;;;;2.72;1.20;;;22.70;79.00;;;;;;4954168;28;20118;-75
2022/06/11 09:21:12;;;;;;;2.47;1.30;;;22.70;79.40;;;;;;4956095;28;20038;-75
2022/06/11 09:23:58;;;;;;;2.58;1.75;;;22.80;76.20;;;;;;4943648;28;20027;-75
2022/06/11 09:26:54;;;;;;;2.05;1.02;;;22.90;75.10;;;;;;4957627;28;20522;-74
2022/06/11 09:29:33;;;;;;;3.40;1.30;;;22.90;73.80;;;;;;4952055;28;20607;-74
2022/06/11 09:32:17;;;;;;;2.70;1.23;;;22.90;75.20;;;;;;4952717;28;20019;-75
2022/06/11 09:34:48;;;;;;;4.80;1.33;;;23.00;75.60;;;;;;4961966;28;20354;-75
2022/06/11 09:37:22;;;;;;;11.95;1.50;;;23.20;74.80;;;;;;4949844;28;20039;-74
2022/06/11 09:39:57;;;;;;;3.88;1.15;;;23.10;73.20;;;;;;4956018;28;20023;-75
2022/06/11 09:42:39;;;;;;;2.58;1.13;;;23.10;73.60;;;;;;4950385;28;20743;-75
2022/06/11 09:45:22;;;;;;;3.58;1.27;;;23.10;72.40;;;;;;4950774;28;20479;-75
2022/06/11 09:48:18;;;;;;;2.40;1.10;;;23.00;71.90;;;;;;4948678;28;20027;-74
2022/06/11 09:50:47;;;;;;;2.58;1.30;;;23.00;72.30;;;;;;4954595;28;20035;-74
2022/06/11 09:53:15;;;;;;;4.47;1.20;;;23.10;71.80;;;;;;4954335;28;20113;-75
2022/06/11 09:55:54;;;;;;;3.30;1.33;;;23.10;71.90;;;;;;4958298;28;20031;-75
2022/06/11 09:58:44;;;;;;;2.80;1.30;;;23.10;72.00;;;;;;4950175;28;20500;-75
2022/06/11 10:01:15;;;;;;;2.30;1.35;;;23.20;71.30;;;;;;4964176;28;20175;-75
2022/06/11 10:03:49;;;;;;;7.30;1.60;;;23.30;70.90;;;;;;4953671;29;20054;-75
2022/06/11 10:06:24;;;;;;;2.15;1.30;;;23.40;72.00;;;;;;4945777;28;20027;-75
2022/06/11 10:08:53;;;;;;;2.42;1.55;;;23.50;72.20;;;;;;4948225;28;20031;-75
2022/06/11 10:11:22;;;;;;;2.60;1.50;;;23.60;71.90;;;;;;4949441;28;20031;-75
2022/06/11 10:14:28;;;;;;;1.83;1.40;;;23.70;71.60;;;;;;4947375;28;20036;-75
2022/06/11 10:16:56;;;;;;;3.35;1.35;;;23.70;71.20;;;;;;4954579;28;20282;-75
2022/06/11 10:19:47;;;;;;;4.07;1.20;;;23.70;70.80;;;;;;4956990;28;20041;-75
2022/06/11 10:22:19;;;;;;;3.22;1.38;;;23.60;70.90;;;;;;4944740;29;20035;-75
2022/06/11 10:25:04;;;;;;;5.20;1.27;;;23.60;71.20;;;;;;4954776;28;20243;-75
2022/06/11 10:27:35;;;;;;;3.17;1.30;;;23.50;71.80;;;;;;4947630;28;20393;-74
2022/06/11 10:30:28;;;;;;;2.80;1.30;;;23.50;72.10;;;;;;4945474;28;20028;-75
2022/06/11 10:32:55;;;;;;;3.33;1.48;;;23.60;71.80;;;;;;4965365;28;20564;-75
2022/06/11 10:35:27;;;;;;;2.15;1.48;;;23.60;72.40;;;;;;4951815;28;20081;-74
2022/06/11 10:38:02;;;;;;;2.30;1.25;;;23.80;72.00;;;;;;4945533;28;20102;-74
2022/06/11 10:40:39;;;;;;;2.55;1.33;;;23.80;72.00;;;;;;4955459;28;20031;-75
2022/06/11 10:43:23;;;;;;;2.75;1.55;;;24.00;71.90;;;;;;4954365;28;20035;-74
2022/06/11 10:45:49;;;;;;;1.52;1.42;;;24.10;71.70;;;;;;4941347;28;20031;-74
2022/06/11 10:48:21;;;;;;;3.15;1.52;;;24.20;70.70;;;;;;4945347;28;20023;-74
2022/06/11 10:50:48;;;;;;;2.53;1.00;;;24.30;70.60;;;;;;4956637;28;20058;-75
2022/06/11 10:53:26;;;;;;;2.22;1.40;;;24.40;70.00;;;;;;4946968;28;20049;-74
2022/06/11 10:56:03;;;;;;;1.48;1.20;;;24.40;69.60;;;;;;4955794;28;20059;-74
2022/06/11 10:58:41;;;;;;;2.58;1.48;;;24.40;69.70;;;;;;4957258;28;20035;-74
2022/06/11 11:01:33;;;;;;;2.58;1.08;;;24.50;69.90;;;;;;4952191;28;20023;-74
2022/06/11 11:04:14;;;;;;;4.35;1.70;;;24.50;69.30;;;;;;4946860;28;20046;-74
2022/06/11 11:06:42;;;;;;;1.88;1.40;;;24.50;69.40;;;;;;4954368;28;20031;-75
2022/06/11 11:09:12;;;;;;;2.25;1.33;;;24.50;69.10;;;;;;4950475;28;20451;-75
2022/06/11 11:11:50;;;;;;;3.95;1.45;;;24.50;68.70;;;;;;4954409;28;20042;-75
2022/06/11 11:14:19;;;;;;;3.67;1.55;;;24.50;69.60;;;;;;4963342;28;20023;-74
2022/06/11 11:16:49;;;;;;;3.80;1.73;;;24.50;68.60;;;;;;4947504;28;20496;-74
2022/06/11 11:19:33;;;;;;;2.33;1.50;;;24.60;68.90;;;;;;4952112;28;20075;-74
2022/06/11 11:22:05;;;;;;;;;;;24.60;69.40;;;;;;4971040;28;20194;-74
2022/06/11 11:24:41;;;;;;;3.65;1.42;;;24.60;69.20;;;;;;4949523;28;19919;-76
2022/06/11 11:27:20;;;;;;;1.88;1.02;;;24.60;69.30;;;;;;4951662;28;20054;-74
2022/06/11 11:30:10;;;;;;;2.97;2.08;;;24.60;68.90;;;;;;4947688;28;20028;-76
2022/06/11 11:32:36;;;;;;;3.28;1.33;;;24.60;68.80;;;;;;4953029;28;20180;-75
2022/06/11 11:35:31;;;;;;;2.47;1.50;;;24.60;68.60;;;;;;4955540;28;20056;-76
2022/06/11 11:37:59;;;;;;;3.22;1.10;;;24.50;68.00;;;;;;4949786;28;20027;-75
2022/06/11 11:40:30;;;;;;;3.42;1.63;;;24.50;68.50;;;;;;4952927;28;20026;-76
2022/06/11 11:42:58;;;;;;;3.45;1.48;;;24.60;68.70;;;;;;4949734;28;20035;-75
2022/06/11 11:45:28;;;;;;;2.65;1.30;;;24.60;68.60;;;;;;4946595;28;20023;-75
2022/06/11 11:48:05;;;;;;;4.78;2.58;;;24.80;67.60;;;;;;4952658;28;20024;-75
2022/06/11 11:50:38;;;;;;;3.10;1.10;;;25.00;67.00;;;;;;4954212;28;20073;-75
2022/06/11 11:53:13;;;;;;;3.13;1.48;;;25.00;66.60;;;;;;4954451;28;20072;-75
2022/06/11 11:55:43;;;;;;;4.28;1.60;;;25.00;66.80;;;;;;4945979;28;20035;-75
2022/06/11 11:58:17;;;;;;;1.90;1.38;;;25.00;66.80;;;;;;4948506;28;20042;-75
2022/06/11 12:00:42;;;;;;;3.38;1.50;;;25.00;66.30;;;;;;4947822;28;20041;-75
2022/06/11 12:03:35;;;;;;;2.03;1.58;;;25.00;66.40;;;;;;4951602;28;20023;-74
2022/06/11 12:06:01;;;;;;;2.25;1.13;;;25.00;66.10;;;;;;4945194;28;20019;-74
2022/06/11 12:08:48;;;;;;;3.92;1.95;;;24.90;65.70;;;;;;4945726;28;20135;-74
2022/06/11 12:11:35;;;;;;;3.67;1.88;;;24.80;66.50;;;;;;4951955;28;20038;-74
2022/06/11 12:14:04;;;;;;;3.75;1.63;;;24.80;66.70;;;;;;4945819;28;20031;-74
2022/06/11 12:16:31;;;;;;;6.75;2.63;;;24.90;66.50;;;;;;4949469;28;20038;-74
2022/06/11 12:19:17;;;;;;;4.15;2.03;;;24.90;67.20;;;;;;4944387;28;20028;-74
2022/06/11 12:21:45;;;;;;;9.02;2.75;;;24.90;67.40;;;;;;4949840;28;20059;-74
2022/06/11 12:24:34;;;;;;;4.68;1.70;;;24.90;67.50;;;;;;4948751;28;20027;-73
2022/06/11 12:27:09;;;;;;;4.90;1.90;;;24.90;66.80;;;;;;4946837;28;20047;-74
2022/06/11 12:29:43;;;;;;;3.25;1.40;;;25.00;66.80;;;;;;4957820;28;20039;-74
2022/06/11 12:32:20;;;;;;;7.10;2.35;;;25.00;66.10;;;;;;4952878;28;20038;-74
2022/06/11 12:34:47;;;;;;;4.78;1.95;;;25.00;66.20;;;;;;4954178;28;20037;-75
2022/06/11 12:38:04;;;;;;;6.00;2.33;;;25.10;66.50;;;;;;4951839;28;20027;-74
2022/06/11 12:40:52;;;;;;;3.20;1.20;;;25.20;66.30;;;;;;4902241;29;20419;-73
2022/06/11 12:44:08;;;;;;;5.38;1.88;;;25.30;65.80;;;;;;4907091;29;20087;-74
2022/06/11 12:46:46;;;;;;;1.90;1.45;;;25.30;65.90;;;;;;4928085;28;20040;-74
2022/06/11 12:49:15;;;;;;;1.92;1.15;;;25.30;65.60;;;;;;4949961;28;20108;-74
2022/06/11 12:52:08;;;;;;;2.97;1.33;;;25.40;65.30;;;;;;4949397;28;20035;-74
2022/06/11 12:54:34;;;;;;;4.90;1.70;;;25.30;64.90;;;;;;4950862;28;20038;-74
2022/06/11 12:57:06;;;;;;;1.65;1.20;;;25.30;64.50;;;;;;4951168;28;20039;-74
2022/06/11 12:59:41;;;;;;;3.22;1.30;;;25.20;63.60;;;;;;4956615;28;20114;-74
2022/06/11 13:02:21;;;;;;;4.97;1.55;;;25.10;64.10;;;;;;4950583;28;20031;-75
2022/06/11 13:04:53;;;;;;;5.18;1.20;;;25.00;63.90;;;;;;4948508;28;20031;-74
2022/06/11 13:07:49;;;;;;;3.42;1.58;;;24.90;63.80;;;;;;4952206;28;20110;-74
2022/06/11 13:10:37;;;;;;;6.35;1.60;;;24.80;64.40;;;;;;4962471;28;20039;-74
2022/06/11 13:13:17;;;;;;;6.50;4.18;;;24.80;65.00;;;;;;4946548;28;20110;-74
2022/06/11 13:15:55;;;;;;;7.57;3.85;;;24.80;65.40;;;;;;4943963;28;20334;-74
2022/06/11 13:18:33;;;;;;;5.00;1.48;;;25.00;65.20;;;;;;4960563;28;20043;-75
2022/06/11 13:21:30;;;;;;;2.55;1.40;;;25.00;64.10;;;;;;4943740;28;20027;-74
2022/06/11 13:24:05;;;;;;;2.25;1.30;;;25.10;63.60;;;;;;4949718;28;20123;-75